Kezdőlap
METAR-TAF:

METAR-TAF

Repülőterek :

Dzsamsedpur, India

földrajzi szélesség: 22-48-49N, földrajzi hosszúság: 086-10-05E, magasság: 146 m

Jelenlegi meteorológiai megfigyelések

A jelentés 1 órával és 1 perccel ezelõtt készült, 08:00 UTC
Nyugat-északnyugati szél 8 kt
Hőmérséklet 42°C
Páratartalom 16%
Légköri nyomás 1004 hPa
Látótávolság: 5000 m
Szórványos felhőzet 2500 lábon
Száraz légköri homály,

METAR: VEJS 240800Z 29008KT 5000 HZ SCT025 42/11 Q1004

Idő: 14:31 (09:01 UTC)

Előrejelzés

A jelentés 1 órával és 1 perccel ezelõtt készült, 08:00 UTC
Az előrejelzés 24-én 09 óra UTC és 24-én 18 óra UTC között érvényes
Északnyugati szél 8 kt
Látótávolság: 5000 m
Kevés felhő 2000 lábon
24-én 15 óra UTC és 24-én 17 óra UTC között fokozatosan kialakuló
Nyugati szél 4 kt
Látótávolság: 3000 m
Száraz légköri homály,

TAF: VEJS 240800Z 2409/2418 32008KT 5000 FEW020 BECMG 2415/2417 26004KT 3000 HZ NSC

Meteorológiai megfigyelések és előrejelzések több, mint 4000 repülőtéren (METAR és TAF jelentéseket).

A térképen piros és sárga pontok jelzik az elérhető meteorológiai állomásokat.

Mozgassa az egeret a pont fölött, hogy megjelenjen az állomás neve.

Azután kattintson az időjárási megfigyelések és előrejelzések megtekintéséhez.

A térkép megváltoztatása: kattintson a fekete keresztel jelölt zöld gombra ráközelítéshez, a vonallal jelölt zöld gombra távolításhoz, vagy a zöld nyilakra a szomszédos térképek eléréséhez.


METAR-TAF: